sensor_id;sensor_type;location;lat;lon;timestamp;P1;durP1;ratioP1;P2;durP2;ratioP2
52508;SDS011;38420;53.150;6.370;2022-12-18T00:00:59;163.55;;;51.63;;
52508;SDS011;38420;53.150;6.370;2022-12-18T00:03:25;164.90;;;51.45;;
52508;SDS011;38420;53.150;6.370;2022-12-18T00:05:51;162.40;;;50.17;;
52508;SDS011;38420;53.150;6.370;2022-12-18T00:08:17;161.32;;;48.47;;
52508;SDS011;38420;53.150;6.370;2022-12-18T00:10:44;166.00;;;51.85;;
52508;SDS011;38420;53.150;6.370;2022-12-18T00:13:10;156.82;;;46.10;;
52508;SDS011;38420;53.150;6.370;2022-12-18T00:15:37;168.15;;;50.55;;
52508;SDS011;38420;53.150;6.370;2022-12-18T00:18:04;149.82;;;50.85;;
52508;SDS011;38420;53.150;6.370;2022-12-18T00:20:30;149.63;;;46.75;;
52508;SDS011;38420;53.150;6.370;2022-12-18T00:23:00;147.25;;;47.38;;
52508;SDS011;38420;53.150;6.370;2022-12-18T00:25:26;140.20;;;47.15;;
52508;SDS011;38420;53.150;6.370;2022-12-18T00:27:51;159.27;;;51.03;;
52508;SDS011;38420;53.150;6.370;2022-12-18T00:30:17;168.85;;;52.80;;
52508;SDS011;38420;53.150;6.370;2022-12-18T00:32:43;167.65;;;51.33;;
52508;SDS011;38420;53.150;6.370;2022-12-18T00:35:09;158.40;;;51.92;;
52508;SDS011;38420;53.150;6.370;2022-12-18T00:37:34;167.50;;;50.05;;
52508;SDS011;38420;53.150;6.370;2022-12-18T00:40:00;157.50;;;48.70;;
52508;SDS011;38420;53.150;6.370;2022-12-18T00:42:26;156.60;;;48.55;;
52508;SDS011;38420;53.150;6.370;2022-12-18T00:45:10;148.38;;;48.50;;
52508;SDS011;38420;53.150;6.370;2022-12-18T00:47:36;144.15;;;46.25;;
52508;SDS011;38420;53.150;6.370;2022-12-18T00:50:01;136.43;;;44.13;;
52508;SDS011;38420;53.150;6.370;2022-12-18T00:52:27;149.30;;;49.85;;
52508;SDS011;38420;53.150;6.370;2022-12-18T00:54:52;147.13;;;48.28;;
52508;SDS011;38420;53.150;6.370;2022-12-18T00:57:18;138.70;;;44.90;;
52508;SDS011;38420;53.150;6.370;2022-12-18T00:59:44;144.23;;;45.90;;
52508;SDS011;38420;53.150;6.370;2022-12-18T01:02:10;150.98;;;48.00;;
52508;SDS011;38420;53.150;6.370;2022-12-18T01:04:38;153.23;;;46.90;;
52508;SDS011;38420;53.150;6.370;2022-12-18T01:07:03;160.55;;;45.17;;
52508;SDS011;38420;53.150;6.370;2022-12-18T01:09:29;156.45;;;49.80;;
52508;SDS011;38420;53.150;6.370;2022-12-18T01:11:55;152.60;;;48.95;;
52508;SDS011;38420;53.150;6.370;2022-12-18T01:14:20;157.93;;;47.13;;
52508;SDS011;38420;53.150;6.370;2022-12-18T01:16:46;143.60;;;44.50;;
52508;SDS011;38420;53.150;6.370;2022-12-18T01:19:12;125.70;;;39.63;;
52508;SDS011;38420;53.150;6.370;2022-12-18T01:21:37;146.20;;;43.70;;
52508;SDS011;38420;53.150;6.370;2022-12-18T01:24:03;159.43;;;48.55;;
52508;SDS011;38420;53.150;6.370;2022-12-18T01:26:29;148.30;;;47.90;;
52508;SDS011;38420;53.150;6.370;2022-12-18T01:28:55;159.25;;;46.28;;
52508;SDS011;38420;53.150;6.370;2022-12-18T01:31:22;149.80;;;45.83;;
52508;SDS011;38420;53.150;6.370;2022-12-18T01:33:50;146.50;;;42.55;;
52508;SDS011;38420;53.150;6.370;2022-12-18T01:38:46;140.45;;;44.20;;
52508;SDS011;38420;53.150;6.370;2022-12-18T01:41:13;140.30;;;41.80;;
52508;SDS011;38420;53.150;6.370;2022-12-18T01:43:44;139.13;;;41.90;;
52508;SDS011;38420;53.150;6.370;2022-12-18T01:46:15;133.30;;;42.47;;
52508;SDS011;38420;53.150;6.370;2022-12-18T01:48:42;129.27;;;42.20;;
52508;SDS011;38420;53.150;6.370;2022-12-18T01:51:11;143.43;;;43.47;;
52508;SDS011;38420;53.150;6.370;2022-12-18T01:53:38;143.60;;;41.85;;
52508;SDS011;38420;53.150;6.370;2022-12-18T01:56:06;135.68;;;41.80;;
52508;SDS011;38420;53.150;6.370;2022-12-18T01:58:40;135.63;;;42.65;;
52508;SDS011;38420;53.150;6.370;2022-12-18T02:01:10;141.63;;;43.75;;
52508;SDS011;38420;53.150;6.370;2022-12-18T02:03:35;131.65;;;42.20;;
52508;SDS011;38420;53.150;6.370;2022-12-18T02:08:50;129.48;;;40.08;;
52508;SDS011;38420;53.150;6.370;2022-12-18T02:11:58;127.05;;;41.28;;
52508;SDS011;38420;53.150;6.370;2022-12-18T02:14:41;130.95;;;41.28;;
52508;SDS011;38420;53.150;6.370;2022-12-18T02:17:17;139.90;;;45.47;;
52508;SDS011;38420;53.150;6.370;2022-12-18T02:28:26;130.23;;;42.88;;
52508;SDS011;38420;53.150;6.370;2022-12-18T02:30:56;137.25;;;44.78;;
52508;SDS011;38420;53.150;6.370;2022-12-18T02:33:26;144.23;;;41.72;;
52508;SDS011;38420;53.150;6.370;2022-12-18T02:35:54;132.70;;;40.35;;
52508;SDS011;38420;53.150;6.370;2022-12-18T02:38:22;145.43;;;43.63;;
52508;SDS011;38420;53.150;6.370;2022-12-18T02:40:50;143.00;;;44.55;;
52508;SDS011;38420;53.150;6.370;2022-12-18T02:43:18;145.27;;;43.83;;
52508;SDS011;38420;53.150;6.370;2022-12-18T02:45:48;139.32;;;45.92;;
52508;SDS011;38420;53.150;6.370;2022-12-18T02:48:24;148.98;;;46.97;;
52508;SDS011;38420;53.150;6.370;2022-12-18T02:50:58;146.13;;;43.67;;
52508;SDS011;38420;53.150;6.370;2022-12-18T02:53:53;154.15;;;43.83;;
52508;SDS011;38420;53.150;6.370;2022-12-18T02:56:28;149.10;;;45.95;;
52508;SDS011;38420;53.150;6.370;2022-12-18T02:59:11;140.52;;;45.95;;
52508;SDS011;38420;53.150;6.370;2022-12-18T03:07:02;155.13;;;48.28;;
52508;SDS011;38420;53.150;6.370;2022-12-18T03:09:37;168.50;;;54.67;;
52508;SDS011;38420;53.150;6.370;2022-12-18T03:12:10;160.88;;;53.05;;
52508;SDS011;38420;53.150;6.370;2022-12-18T03:14:54;162.55;;;50.25;;
52508;SDS011;38420;53.150;6.370;2022-12-18T03:17:25;169.77;;;50.63;;
52508;SDS011;38420;53.150;6.370;2022-12-18T03:19:52;154.38;;;48.40;;
52508;SDS011;38420;53.150;6.370;2022-12-18T03:22:22;163.45;;;50.78;;
52508;SDS011;38420;53.150;6.370;2022-12-18T03:24:50;154.02;;;51.95;;
52508;SDS011;38420;53.150;6.370;2022-12-18T03:27:17;152.23;;;47.83;;
52508;SDS011;38420;53.150;6.370;2022-12-18T03:29:49;153.77;;;50.08;;
52508;SDS011;38420;53.150;6.370;2022-12-18T03:32:31;151.75;;;45.08;;
52508;SDS011;38420;53.150;6.370;2022-12-18T03:35:04;141.52;;;47.03;;
52508;SDS011;38420;53.150;6.370;2022-12-18T03:37:31;146.93;;;48.05;;
52508;SDS011;38420;53.150;6.370;2022-12-18T03:39:57;138.95;;;46.97;;
52508;SDS011;38420;53.150;6.370;2022-12-18T03:42:35;144.75;;;48.25;;
52508;SDS011;38420;53.150;6.370;2022-12-18T03:45:50;141.73;;;46.85;;
52508;SDS011;38420;53.150;6.370;2022-12-18T03:50:59;148.13;;;45.38;;
52508;SDS011;38420;53.150;6.370;2022-12-18T03:56:26;127.25;;;43.38;;
52508;SDS011;38420;53.150;6.370;2022-12-18T03:58:54;126.65;;;47.05;;
52508;SDS011;38420;53.150;6.370;2022-12-18T04:01:23;122.30;;;42.25;;
52508;SDS011;38420;53.150;6.370;2022-12-18T04:03:54;129.95;;;44.22;;
52508;SDS011;38420;53.150;6.370;2022-12-18T04:06:21;117.85;;;41.65;;
52508;SDS011;38420;53.150;6.370;2022-12-18T04:08:47;111.50;;;41.20;;
52508;SDS011;38420;53.150;6.370;2022-12-18T04:11:14;121.47;;;44.20;;
52508;SDS011;38420;53.150;6.370;2022-12-18T04:13:41;113.80;;;39.55;;
52508;SDS011;38420;53.150;6.370;2022-12-18T04:16:08;101.75;;;39.72;;
52508;SDS011;38420;53.150;6.370;2022-12-18T04:18:34;116.55;;;41.13;;
52508;SDS011;38420;53.150;6.370;2022-12-18T04:21:00;107.50;;;37.83;;
52508;SDS011;38420;53.150;6.370;2022-12-18T04:23:26;99.80;;;38.47;;
52508;SDS011;38420;53.150;6.370;2022-12-18T04:25:53;103.35;;;38.85;;
52508;SDS011;38420;53.150;6.370;2022-12-18T04:28:19;98.03;;;37.25;;
52508;SDS011;38420;53.150;6.370;2022-12-18T04:30:47;95.60;;;35.20;;
52508;SDS011;38420;53.150;6.370;2022-12-18T04:33:16;103.57;;;37.70;;
52508;SDS011;38420;53.150;6.370;2022-12-18T04:35:42;99.82;;;36.22;;
52508;SDS011;38420;53.150;6.370;2022-12-18T04:38:08;96.82;;;36.58;;
52508;SDS011;38420;53.150;6.370;2022-12-18T04:40:35;97.93;;;36.00;;
52508;SDS011;38420;53.150;6.370;2022-12-18T04:43:01;100.93;;;37.03;;
52508;SDS011;38420;53.150;6.370;2022-12-18T04:45:27;93.45;;;36.67;;
52508;SDS011;38420;53.150;6.370;2022-12-18T04:47:52;102.65;;;37.22;;
52508;SDS011;38420;53.150;6.370;2022-12-18T04:50:18;104.25;;;37.28;;
52508;SDS011;38420;53.150;6.370;2022-12-18T04:52:44;101.03;;;38.00;;
52508;SDS011;38420;53.150;6.370;2022-12-18T04:55:09;94.85;;;34.72;;
52508;SDS011;38420;53.150;6.370;2022-12-18T04:57:35;99.78;;;37.35;;
52508;SDS011;38420;53.150;6.370;2022-12-18T05:00:00;96.22;;;35.75;;
52508;SDS011;38420;53.150;6.370;2022-12-18T05:02:26;100.47;;;33.95;;
52508;SDS011;38420;53.150;6.370;2022-12-18T05:04:52;94.53;;;33.25;;
52508;SDS011;38420;53.150;6.370;2022-12-18T05:07:18;95.18;;;35.75;;
52508;SDS011;38420;53.150;6.370;2022-12-18T05:09:43;87.45;;;34.80;;
52508;SDS011;38420;53.150;6.370;2022-12-18T05:12:09;91.20;;;34.45;;
52508;SDS011;38420;53.150;6.370;2022-12-18T05:14:34;94.82;;;33.97;;
52508;SDS011;38420;53.150;6.370;2022-12-18T05:17:00;86.93;;;33.67;;
52508;SDS011;38420;53.150;6.370;2022-12-18T05:19:25;94.20;;;34.08;;
52508;SDS011;38420;53.150;6.370;2022-12-18T05:21:51;90.93;;;34.28;;
52508;SDS011;38420;53.150;6.370;2022-12-18T05:24:17;95.47;;;32.92;;
52508;SDS011;38420;53.150;6.370;2022-12-18T05:26:42;88.50;;;33.25;;
52508;SDS011;38420;53.150;6.370;2022-12-18T05:29:08;86.35;;;31.05;;
52508;SDS011;38420;53.150;6.370;2022-12-18T05:31:37;87.95;;;33.28;;
52508;SDS011;38420;53.150;6.370;2022-12-18T05:34:03;82.60;;;32.75;;
52508;SDS011;38420;53.150;6.370;2022-12-18T05:36:28;88.45;;;31.85;;
52508;SDS011;38420;53.150;6.370;2022-12-18T05:38:54;82.57;;;29.73;;
52508;SDS011;38420;53.150;6.370;2022-12-18T05:41:19;85.80;;;32.47;;
52508;SDS011;38420;53.150;6.370;2022-12-18T05:43:45;88.28;;;30.65;;
52508;SDS011;38420;53.150;6.370;2022-12-18T05:46:12;80.90;;;30.45;;
52508;SDS011;38420;53.150;6.370;2022-12-18T05:48:39;89.65;;;32.17;;
52508;SDS011;38420;53.150;6.370;2022-12-18T05:51:06;79.40;;;30.75;;
52508;SDS011;38420;53.150;6.370;2022-12-18T05:53:33;90.95;;;30.02;;
52508;SDS011;38420;53.150;6.370;2022-12-18T05:56:01;85.85;;;32.80;;
52508;SDS011;38420;53.150;6.370;2022-12-18T05:58:31;86.78;;;32.00;;
52508;SDS011;38420;53.150;6.370;2022-12-18T06:00:57;94.68;;;32.70;;
52508;SDS011;38420;53.150;6.370;2022-12-18T06:03:30;81.70;;;31.27;;
52508;SDS011;38420;53.150;6.370;2022-12-18T06:05:56;80.50;;;30.17;;
52508;SDS011;38420;53.150;6.370;2022-12-18T06:08:21;87.10;;;32.03;;
52508;SDS011;38420;53.150;6.370;2022-12-18T06:10:51;89.22;;;29.50;;
52508;SDS011;38420;53.150;6.370;2022-12-18T06:13:17;78.35;;;30.00;;
52508;SDS011;38420;53.150;6.370;2022-12-18T06:15:44;70.82;;;28.00;;
52508;SDS011;38420;53.150;6.370;2022-12-18T06:18:09;87.55;;;30.38;;
52508;SDS011;38420;53.150;6.370;2022-12-18T06:20:35;79.05;;;31.10;;
52508;SDS011;38420;53.150;6.370;2022-12-18T06:23:02;80.03;;;29.40;;
52508;SDS011;38420;53.150;6.370;2022-12-18T06:25:28;82.45;;;30.35;;
52508;SDS011;38420;53.150;6.370;2022-12-18T06:27:54;85.18;;;31.30;;
52508;SDS011;38420;53.150;6.370;2022-12-18T06:30:19;79.65;;;30.52;;
52508;SDS011;38420;53.150;6.370;2022-12-18T06:32:45;86.30;;;29.83;;
52508;SDS011;38420;53.150;6.370;2022-12-18T06:35:12;85.57;;;31.95;;
52508;SDS011;38420;53.150;6.370;2022-12-18T06:37:37;91.10;;;32.63;;
52508;SDS011;38420;53.150;6.370;2022-12-18T06:40:03;78.85;;;29.35;;
52508;SDS011;38420;53.150;6.370;2022-12-18T06:42:30;75.27;;;28.53;;
52508;SDS011;38420;53.150;6.370;2022-12-18T06:44:55;90.57;;;32.45;;
52508;SDS011;38420;53.150;6.370;2022-12-18T06:47:21;74.80;;;27.48;;
52508;SDS011;38420;53.150;6.370;2022-12-18T06:49:46;80.85;;;29.73;;
52508;SDS011;38420;53.150;6.370;2022-12-18T06:52:12;85.03;;;30.75;;
52508;SDS011;38420;53.150;6.370;2022-12-18T06:54:37;77.43;;;29.73;;
52508;SDS011;38420;53.150;6.370;2022-12-18T06:57:03;73.45;;;26.52;;
52508;SDS011;38420;53.150;6.370;2022-12-18T06:59:29;80.03;;;28.50;;
52508;SDS011;38420;53.150;6.370;2022-12-18T07:01:54;70.85;;;27.73;;
52508;SDS011;38420;53.150;6.370;2022-12-18T07:04:20;70.13;;;28.00;;
52508;SDS011;38420;53.150;6.370;2022-12-18T07:06:45;74.80;;;27.15;;
52508;SDS011;38420;53.150;6.370;2022-12-18T07:09:11;72.63;;;28.48;;
52508;SDS011;38420;53.150;6.370;2022-12-18T07:11:36;75.07;;;28.35;;
52508;SDS011;38420;53.150;6.370;2022-12-18T07:14:02;72.63;;;27.13;;
52508;SDS011;38420;53.150;6.370;2022-12-18T07:16:28;66.70;;;27.42;;
52508;SDS011;38420;53.150;6.370;2022-12-18T07:18:54;71.75;;;28.23;;
52508;SDS011;38420;53.150;6.370;2022-12-18T07:21:20;66.15;;;27.05;;
52508;SDS011;38420;53.150;6.370;2022-12-18T07:23:46;74.00;;;28.77;;
52508;SDS011;38420;53.150;6.370;2022-12-18T07:26:13;65.53;;;25.10;;
52508;SDS011;38420;53.150;6.370;2022-12-18T07:28:40;58.05;;;26.52;;
52508;SDS011;38420;53.150;6.370;2022-12-18T07:31:06;66.68;;;25.92;;
52508;SDS011;38420;53.150;6.370;2022-12-18T07:33:35;60.28;;;24.40;;
52508;SDS011;38420;53.150;6.370;2022-12-18T07:36:04;58.92;;;24.10;;
52508;SDS011;38420;53.150;6.370;2022-12-18T07:38:32;60.88;;;26.23;;
52508;SDS011;38420;53.150;6.370;2022-12-18T07:41:02;65.32;;;26.40;;
52508;SDS011;38420;53.150;6.370;2022-12-18T07:43:32;63.35;;;25.15;;
52508;SDS011;38420;53.150;6.370;2022-12-18T07:45:58;57.35;;;25.88;;
52508;SDS011;38420;53.150;6.370;2022-12-18T07:48:24;58.53;;;25.25;;
52508;SDS011;38420;53.150;6.370;2022-12-18T07:50:49;53.40;;;24.23;;
52508;SDS011;38420;53.150;6.370;2022-12-18T07:53:15;56.80;;;25.23;;
52508;SDS011;38420;53.150;6.370;2022-12-18T07:55:41;58.80;;;23.95;;
52508;SDS011;38420;53.150;6.370;2022-12-18T07:58:07;55.42;;;23.63;;
52508;SDS011;38420;53.150;6.370;2022-12-18T08:00:33;52.88;;;22.83;;
52508;SDS011;38420;53.150;6.370;2022-12-18T08:02:59;57.85;;;24.88;;
52508;SDS011;38420;53.150;6.370;2022-12-18T08:05:26;55.85;;;24.63;;
52508;SDS011;38420;53.150;6.370;2022-12-18T08:07:52;63.88;;;25.92;;
52508;SDS011;38420;53.150;6.370;2022-12-18T08:10:18;54.63;;;24.95;;
52508;SDS011;38420;53.150;6.370;2022-12-18T08:12:44;53.13;;;23.38;;
52508;SDS011;38420;53.150;6.370;2022-12-18T08:15:10;53.72;;;24.77;;
52508;SDS011;38420;53.150;6.370;2022-12-18T08:17:36;51.42;;;22.83;;
52508;SDS011;38420;53.150;6.370;2022-12-18T08:20:02;53.97;;;23.40;;
52508;SDS011;38420;53.150;6.370;2022-12-18T08:22:28;50.58;;;21.70;;
52508;SDS011;38420;53.150;6.370;2022-12-18T08:24:54;51.85;;;23.17;;
52508;SDS011;38420;53.150;6.370;2022-12-18T08:27:20;52.95;;;25.88;;
52508;SDS011;38420;53.150;6.370;2022-12-18T08:29:45;47.30;;;22.05;;
52508;SDS011;38420;53.150;6.370;2022-12-18T08:32:11;42.95;;;22.50;;
52508;SDS011;38420;53.150;6.370;2022-12-18T08:34:36;47.20;;;22.38;;
52508;SDS011;38420;53.150;6.370;2022-12-18T08:37:02;50.60;;;22.45;;
52508;SDS011;38420;53.150;6.370;2022-12-18T08:39:28;46.17;;;23.33;;
52508;SDS011;38420;53.150;6.370;2022-12-18T08:41:54;45.72;;;21.70;;
52508;SDS011;38420;53.150;6.370;2022-12-18T08:44:39;49.45;;;22.80;;
52508;SDS011;38420;53.150;6.370;2022-12-18T08:47:07;49.42;;;22.30;;
52508;SDS011;38420;53.150;6.370;2022-12-18T08:49:33;44.00;;;20.77;;
52508;SDS011;38420;53.150;6.370;2022-12-18T08:52:00;40.75;;;20.73;;
52508;SDS011;38420;53.150;6.370;2022-12-18T08:54:26;42.67;;;21.08;;
52508;SDS011;38420;53.150;6.370;2022-12-18T08:56:52;42.90;;;20.73;;
52508;SDS011;38420;53.150;6.370;2022-12-18T08:59:18;44.03;;;21.48;;
52508;SDS011;38420;53.150;6.370;2022-12-18T09:01:44;42.88;;;22.13;;
52508;SDS011;38420;53.150;6.370;2022-12-18T09:04:10;62.97;;;43.00;;
52508;SDS011;38420;53.150;6.370;2022-12-18T09:06:36;61.40;;;38.00;;
52508;SDS011;38420;53.150;6.370;2022-12-18T09:09:02;48.35;;;27.55;;
52508;SDS011;38420;53.150;6.370;2022-12-18T09:11:29;49.00;;;27.67;;
52508;SDS011;38420;53.150;6.370;2022-12-18T09:13:56;57.45;;;32.97;;
52508;SDS011;38420;53.150;6.370;2022-12-18T09:16:23;78.40;;;48.78;;
52508;SDS011;38420;53.150;6.370;2022-12-18T09:18:50;41.58;;;21.95;;
52508;SDS011;38420;53.150;6.370;2022-12-18T09:21:17;40.28;;;20.50;;
52508;SDS011;38420;53.150;6.370;2022-12-18T09:23:48;34.08;;;19.95;;
52508;SDS011;38420;53.150;6.370;2022-12-18T09:26:15;39.35;;;19.73;;
52508;SDS011;38420;53.150;6.370;2022-12-18T09:28:41;40.42;;;26.52;;
52508;SDS011;38420;53.150;6.370;2022-12-18T09:31:07;36.90;;;19.70;;
52508;SDS011;38420;53.150;6.370;2022-12-18T09:33:36;37.80;;;22.63;;
52508;SDS011;38420;53.150;6.370;2022-12-18T09:36:06;32.03;;;19.13;;
52508;SDS011;38420;53.150;6.370;2022-12-18T09:38:34;31.02;;;17.88;;
52508;SDS011;38420;53.150;6.370;2022-12-18T09:41:01;34.03;;;20.17;;
52508;SDS011;38420;53.150;6.370;2022-12-18T09:43:43;30.52;;;17.10;;
52508;SDS011;38420;53.150;6.370;2022-12-18T09:46:19;31.25;;;16.20;;
52508;SDS011;38420;53.150;6.370;2022-12-18T09:48:52;27.38;;;15.40;;
52508;SDS011;38420;53.150;6.370;2022-12-18T09:51:22;31.75;;;15.70;;
52508;SDS011;38420;53.150;6.370;2022-12-18T09:54:07;30.63;;;15.48;;
52508;SDS011;38420;53.150;6.370;2022-12-18T09:56:56;27.85;;;15.38;;
52508;SDS011;38420;53.150;6.370;2022-12-18T09:59:39;64.75;;;38.65;;
52508;SDS011;38420;53.150;6.370;2022-12-18T10:02:21;31.30;;;17.95;;
52508;SDS011;38420;53.150;6.370;2022-12-18T10:05:10;27.47;;;15.33;;
52508;SDS011;38420;53.150;6.370;2022-12-18T10:14:01;31.48;;;15.38;;
52508;SDS011;38420;53.150;6.370;2022-12-18T10:26:26;27.20;;;16.20;;
52508;SDS011;38420;53.150;6.370;2022-12-18T10:28:52;25.83;;;15.00;;
52508;SDS011;38420;53.150;6.370;2022-12-18T10:31:22;41.55;;;28.25;;
52508;SDS011;38420;53.150;6.370;2022-12-18T10:33:49;43.45;;;30.17;;
52508;SDS011;38420;53.150;6.370;2022-12-18T10:36:14;31.55;;;22.88;;
52508;SDS011;38420;53.150;6.370;2022-12-18T10:38:40;27.75;;;16.73;;
52508;SDS011;38420;53.150;6.370;2022-12-18T10:41:08;30.63;;;17.80;;
52508;SDS011;38420;53.150;6.370;2022-12-18T10:46:55;25.42;;;14.32;;
52508;SDS011;38420;53.150;6.370;2022-12-18T10:49:30;26.98;;;14.75;;
52508;SDS011;38420;53.150;6.370;2022-12-18T10:54:37;22.40;;;13.07;;
52508;SDS011;38420;53.150;6.370;2022-12-18T11:00:21;25.98;;;14.40;;
52508;SDS011;38420;53.150;6.370;2022-12-18T11:02:56;24.75;;;12.98;;
52508;SDS011;38420;53.150;6.370;2022-12-18T11:05:26;26.58;;;13.43;;
52508;SDS011;38420;53.150;6.370;2022-12-18T11:07:56;26.05;;;14.55;;
52508;SDS011;38420;53.150;6.370;2022-12-18T11:10:33;24.85;;;12.88;;
52508;SDS011;38420;53.150;6.370;2022-12-18T11:13:12;25.92;;;12.70;;
52508;SDS011;38420;53.150;6.370;2022-12-18T11:15:42;18.88;;;10.98;;
52508;SDS011;38420;53.150;6.370;2022-12-18T11:18:15;19.20;;;10.65;;
52508;SDS011;38420;53.150;6.370;2022-12-18T11:20:54;20.35;;;10.90;;
52508;SDS011;38420;53.150;6.370;2022-12-18T11:23:24;22.45;;;10.57;;
52508;SDS011;38420;53.150;6.370;2022-12-18T11:25:53;213.23;;;96.95;;
52508;SDS011;38420;53.150;6.370;2022-12-18T11:28:28;494.83;;;183.77;;
52508;SDS011;38420;53.150;6.370;2022-12-18T11:34:08;18.73;;;10.40;;
52508;SDS011;38420;53.150;6.370;2022-12-18T11:36:38;20.33;;;10.40;;
52508;SDS011;38420;53.150;6.370;2022-12-18T11:39:51;18.73;;;10.60;;
52508;SDS011;38420;53.150;6.370;2022-12-18T11:47:18;21.35;;;11.00;;
52508;SDS011;38420;53.150;6.370;2022-12-18T11:49:55;21.80;;;11.93;;
52508;SDS011;38420;53.150;6.370;2022-12-18T11:52:26;20.15;;;12.10;;
52508;SDS011;38420;53.150;6.370;2022-12-18T11:54:59;20.70;;;12.18;;
52508;SDS011;38420;53.150;6.370;2022-12-18T12:00:20;21.73;;;14.02;;
52508;SDS011;38420;53.150;6.370;2022-12-18T12:25:00;12.88;;;8.45;;
52508;SDS011;38420;53.150;6.370;2022-12-18T12:27:39;13.70;;;8.38;;
52508;SDS011;38420;53.150;6.370;2022-12-18T12:30:18;18.00;;;9.02;;
52508;SDS011;38420;53.150;6.370;2022-12-18T12:38:16;17.42;;;10.15;;
52508;SDS011;38420;53.150;6.370;2022-12-18T12:40:52;21.17;;;12.63;;
52508;SDS011;38420;53.150;6.370;2022-12-18T12:43:38;16.15;;;10.60;;
52508;SDS011;38420;53.150;6.370;2022-12-18T12:46:09;14.70;;;8.90;;
52508;SDS011;38420;53.150;6.370;2022-12-18T12:48:52;13.63;;;8.95;;
52508;SDS011;38420;53.150;6.370;2022-12-18T12:51:38;18.48;;;10.02;;
52508;SDS011;38420;53.150;6.370;2022-12-18T12:54:15;15.00;;;9.32;;
52508;SDS011;38420;53.150;6.370;2022-12-18T12:57:05;15.88;;;10.05;;
52508;SDS011;38420;53.150;6.370;2022-12-18T13:00:16;16.02;;;8.82;;
52508;SDS011;38420;53.150;6.370;2022-12-18T13:05:40;12.77;;;8.15;;
52508;SDS011;38420;53.150;6.370;2022-12-18T13:08:23;17.67;;;9.52;;
52508;SDS011;38420;53.150;6.370;2022-12-18T13:10:57;14.95;;;8.48;;
52508;SDS011;38420;53.150;6.370;2022-12-18T13:13:55;15.77;;;8.68;;
52508;SDS011;38420;53.150;6.370;2022-12-18T13:16:22;12.88;;;7.70;;
52508;SDS011;38420;53.150;6.370;2022-12-18T13:18:53;12.15;;;7.50;;
52508;SDS011;38420;53.150;6.370;2022-12-18T13:21:29;12.82;;;7.57;;
52508;SDS011;38420;53.150;6.370;2022-12-18T13:23:57;16.80;;;8.05;;
52508;SDS011;38420;53.150;6.370;2022-12-18T13:26:55;14.30;;;7.53;;
52508;SDS011;38420;53.150;6.370;2022-12-18T13:30:11;15.32;;;7.72;;
52508;SDS011;38420;53.150;6.370;2022-12-18T13:32:19;15.32;;;7.88;;
52508;SDS011;38420;53.150;6.370;2022-12-18T13:35:21;12.10;;;7.30;;
52508;SDS011;38420;53.150;6.370;2022-12-18T13:37:55;12.10;;;6.97;;
52508;SDS011;38420;53.150;6.370;2022-12-18T13:44:09;12.88;;;7.25;;
52508;SDS011;38420;53.150;6.370;2022-12-18T13:46:20;13.63;;;7.38;;
52508;SDS011;38420;53.150;6.370;2022-12-18T13:51:42;13.30;;;7.53;;
52508;SDS011;38420;53.150;6.370;2022-12-18T13:57:00;11.93;;;6.85;;
52508;SDS011;38420;53.150;6.370;2022-12-18T13:59:37;12.77;;;7.43;;
52508;SDS011;38420;53.150;6.370;2022-12-18T14:02:16;12.50;;;7.18;;
52508;SDS011;38420;53.150;6.370;2022-12-18T14:04:49;12.00;;;6.47;;
52508;SDS011;38420;53.150;6.370;2022-12-18T14:07:25;114.80;;;55.45;;
52508;SDS011;38420;53.150;6.370;2022-12-18T14:09:59;66.70;;;41.88;;
52508;SDS011;38420;53.150;6.370;2022-12-18T14:12:28;17.88;;;12.70;;
52508;SDS011;38420;53.150;6.370;2022-12-18T14:17:59;13.52;;;7.28;;
52508;SDS011;38420;53.150;6.370;2022-12-18T14:20:25;12.98;;;8.30;;
52508;SDS011;38420;53.150;6.370;2022-12-18T14:25:23;16.67;;;7.15;;
52508;SDS011;38420;53.150;6.370;2022-12-18T14:27:52;15.63;;;8.13;;
52508;SDS011;38420;53.150;6.370;2022-12-18T14:30:37;13.70;;;7.53;;
52508;SDS011;38420;53.150;6.370;2022-12-18T14:35:34;13.70;;;7.38;;
52508;SDS011;38420;53.150;6.370;2022-12-18T14:41:02;14.70;;;7.82;;
52508;SDS011;38420;53.150;6.370;2022-12-18T14:43:34;12.90;;;7.55;;
52508;SDS011;38420;53.150;6.370;2022-12-18T14:46:01;12.68;;;7.20;;
52508;SDS011;38420;53.150;6.370;2022-12-18T14:51:02;13.70;;;7.28;;
52508;SDS011;38420;53.150;6.370;2022-12-18T14:56:01;14.98;;;8.68;;
52508;SDS011;38420;53.150;6.370;2022-12-18T14:58:28;13.45;;;7.53;;
52508;SDS011;38420;53.150;6.370;2022-12-18T15:00:54;11.75;;;6.90;;
52508;SDS011;38420;53.150;6.370;2022-12-18T15:03:20;13.93;;;7.22;;
52508;SDS011;38420;53.150;6.370;2022-12-18T15:05:47;13.10;;;7.25;;
52508;SDS011;38420;53.150;6.370;2022-12-18T15:08:29;11.82;;;7.07;;
52508;SDS011;38420;53.150;6.370;2022-12-18T15:11:02;16.00;;;7.38;;
52508;SDS011;38420;53.150;6.370;2022-12-18T15:13:28;12.25;;;7.15;;
52508;SDS011;38420;53.150;6.370;2022-12-18T15:15:54;14.15;;;7.82;;
52508;SDS011;38420;53.150;6.370;2022-12-18T15:18:32;12.55;;;7.20;;
52508;SDS011;38420;53.150;6.370;2022-12-18T15:21:07;11.82;;;7.60;;
52508;SDS011;38420;53.150;6.370;2022-12-18T15:26:10;17.38;;;8.02;;
52508;SDS011;38420;53.150;6.370;2022-12-18T15:28:50;13.73;;;7.68;;
52508;SDS011;38420;53.150;6.370;2022-12-18T15:31:33;14.25;;;7.57;;
52508;SDS011;38420;53.150;6.370;2022-12-18T15:34:01;14.70;;;8.50;;
52508;SDS011;38420;53.150;6.370;2022-12-18T15:36:46;12.95;;;7.53;;
52508;SDS011;38420;53.150;6.370;2022-12-18T15:39:12;12.75;;;8.32;;
52508;SDS011;38420;53.150;6.370;2022-12-18T15:41:38;13.95;;;8.65;;
52508;SDS011;38420;53.150;6.370;2022-12-18T15:47:02;12.27;;;7.18;;
52508;SDS011;38420;53.150;6.370;2022-12-18T15:49:28;13.75;;;8.00;;
52508;SDS011;38420;53.150;6.370;2022-12-18T15:51:54;15.07;;;8.82;;
52508;SDS011;38420;53.150;6.370;2022-12-18T15:54:23;12.63;;;8.05;;
52508;SDS011;38420;53.150;6.370;2022-12-18T15:57:10;15.90;;;8.40;;
52508;SDS011;38420;53.150;6.370;2022-12-18T15:59:49;16.92;;;9.82;;
52508;SDS011;38420;53.150;6.370;2022-12-18T16:02:20;15.70;;;9.05;;
52508;SDS011;38420;53.150;6.370;2022-12-18T16:04:47;17.02;;;9.27;;
52508;SDS011;38420;53.150;6.370;2022-12-18T16:07:14;15.52;;;9.50;;
52508;SDS011;38420;53.150;6.370;2022-12-18T16:09:40;17.60;;;10.40;;
52508;SDS011;38420;53.150;6.370;2022-12-18T16:12:08;16.45;;;9.32;;
52508;SDS011;38420;53.150;6.370;2022-12-18T16:14:45;15.02;;;9.40;;
52508;SDS011;38420;53.150;6.370;2022-12-18T16:17:12;16.90;;;9.85;;
52508;SDS011;38420;53.150;6.370;2022-12-18T16:19:38;16.67;;;9.50;;
52508;SDS011;38420;53.150;6.370;2022-12-18T16:22:04;15.82;;;9.50;;
52508;SDS011;38420;53.150;6.370;2022-12-18T16:24:31;16.98;;;9.50;;
52508;SDS011;38420;53.150;6.370;2022-12-18T16:26:59;16.20;;;9.75;;
52508;SDS011;38420;53.150;6.370;2022-12-18T16:29:25;14.98;;;9.32;;
52508;SDS011;38420;53.150;6.370;2022-12-18T16:31:58;14.93;;;9.50;;
52508;SDS011;38420;53.150;6.370;2022-12-18T16:34:26;20.45;;;10.18;;
52508;SDS011;38420;53.150;6.370;2022-12-18T16:37:15;18.13;;;10.73;;
52508;SDS011;38420;53.150;6.370;2022-12-18T16:39:41;16.08;;;9.93;;